Latest Weather Observations for Noonamah

IDD60801

Issued at 9:51 pm CST Monday 6 July 2020 (issued every 10 minutes, with the page automatically refreshed every 10 minutes)

About weather observations | Map of weather stations | Latest weather observations for NT | Other Formats
Station Details ID: 014314 Name: NOONAMAH AIRSTRIP Lat: -12.61 Lon: 131.05 Height: 17.5 m
Data from the previous 72 hours. | See also: Recent months at Noonamah
Date/Time
CST
Temp
°C
App
Temp
°C
Dew
Point
°C
Rel
Hum
%
Delta-T
°C
Wind Press
QNH
hPa
Press
MSL
hPa
Rain since
9am
mm
Dir  Spd
km/h
Gust
km/h
Spd
kts
Gust
kts
06/09:30pm 24.6 24.9 10.8 42 7.7 CALM 0 0 0 0 1014.7 1014.6 0.0
06/09:00pm 25.8 26.0 10.4 38 8.6 CALM 0 0 0 0 1014.5 1014.4 0.0
06/08:30pm 27.4 27.5 10.2 34 9.6 CALM 0 0 0 0 1014.2 1014.1 0.0
06/08:00pm 27.8 28.0 10.5 34 9.8 CALM 0 0 0 0 1013.8 1013.7 0.0
06/07:30pm 28.8 28.9 10.0 31 10.6 CALM 0 0 0 0 1013.6 1013.5 0.0
06/07:00pm 29.3 28.4 9.4 29 11.1 ESE 4 6 2 3 1013.2 1013.1 0.0
06/06:30pm 29.9 28.5 8.9 27 11.7 SE 6 6 3 3 1012.9 1012.8 0.0
06/06:00pm 30.6 29.0 8.9 26 12.1 SE 7 11 4 6 1012.6 1012.5 0.0
06/05:30pm 31.0 28.8 9.3 26 12.2 ESE 11 19 6 10 1012.4 1012.3 0.0
06/05:00pm 31.6 29.7 9.2 25 12.6 SE 9 17 5 9 1012.0 1011.9 0.0
06/04:30pm 31.9 30.1 9.4 25 12.7 ESE 9 15 5 8 1012.0 1011.9 0.0
06/04:00pm 32.4 30.0 9.9 25 12.8 E 13 20 7 11 1011.8 1011.7 0.0
06/03:30pm 32.1 30.0 9.6 25 12.8 SE 11 20 6 11 1011.8 1011.7 0.0
06/03:00pm 31.9 28.6 8.2 23 13.1 SE 15 28 8 15 1011.9 1011.8 0.0
06/02:30pm 31.6 28.5 7.3 22 13.3 ESE 13 24 7 13 1012.2 1012.1 0.0
06/02:00pm 31.8 28.5 8.1 23 13.1 ESE 15 26 8 14 1012.5 1012.4 0.0
06/01:30pm 30.9 27.2 8.0 24 12.6 SE 17 32 9 17 1012.9 1012.8 0.0
06/01:00pm 30.4 27.1 8.2 25 12.2 ESE 15 26 8 14 1013.4 1013.3 0.0
06/12:30pm 29.9 26.2 7.8 25 12.0 ESE 17 26 9 14 1013.8 1013.7 0.0
06/12:00pm 29.0 25.0 8.1 27 11.4 ESE 19 28 10 15 1014.4 1014.3 0.0
06/11:30am 28.8 24.3 8.5 28 11.1 ESE 22 33 12 18 1014.9 1014.8 0.0
06/11:00am 28.2 23.7 8.5 29 10.8 ESE 22 35 12 19 1015.1 1015.0 0.0
06/10:30am 26.8 22.8 9.2 33 9.7 SE 20 33 11 18 1015.5 1015.4 0.0
06/10:00am 25.7 21.9 9.9 37 8.7 ESE 20 28 11 15 1015.8 1015.7 0.0
06/09:30am 24.6 21.3 10.8 42 7.7 SE 19 32 10 17 1016.0 1015.9 0.0
06/09:00am 23.1 20.2 10.9 46 6.8 SE 17 26 9 14 1016.0 1015.9 0.0
06/08:30am 22.0 18.6 10.5 48 6.3 SE 19 26 10 14 1015.9 1015.8 0.0
06/08:00am 20.9 18.2 10.4 51 5.7 SE 15 20 8 11 1015.6 1015.5 0.0
06/07:30am 20.1 18.0 9.9 52 5.5 SE 11 17 6 9 1015.5 1015.4 0.0
06/07:00am 20.0 17.8 9.3 50 5.7 SE 11 19 6 10 1015.1 1015.0 0.0
06/06:30am 20.1 18.1 8.8 48 5.9 SE 9 15 5 8 1014.8 1014.7 0.0
06/06:00am 20.4 18.8 8.7 47 6.1 SE 7 11 4 6 1014.6 1014.5 0.0
06/05:30am 20.2 18.5 8.5 47 6.1 SE 7 11 4 6 1014.7 1014.6 0.0
06/05:00am 19.1 17.6 6.6 44 6.3 SE 4 6 2 3 1014.6 1014.5 0.0
06/04:30am 19.7 17.7 6.1 41 6.8 SE 6 7 3 4 1014.7 1014.6 0.0
06/04:00am 20.0 17.6 5.3 38 7.2 SE 7 9 4 5 1014.6 1014.5 0.0
06/03:30am 20.3 17.8 3.5 33 8.0 SE 6 11 3 6 1014.9 1014.8 0.0
06/03:00am 20.3 17.4 2.6 31 8.2 SE 7 13 4 7 1014.9 1014.8 0.0
06/02:30am 20.5 17.6 2.8 31 8.3 SE 7 9 4 5 1015.2 1015.1 0.0
06/02:00am 21.0 17.8 2.8 30 8.6 SE 9 13 5 7 1015.2 1015.1 0.0
06/01:30am 21.3 18.0 2.6 29 8.8 SE 9 13 5 7 1015.3 1015.2 0.0
06/01:00am 21.6 18.4 2.8 29 8.9 SE 9 15 5 8 1015.4 1015.3 0.0
06/12:30am 21.9 18.7 3.1 29 9.0 SE 9 15 5 8 1015.3 1015.2 0.0
06/12:00am 22.2 18.8 3.8 30 8.9 SE 11 15 6 8 1015.1 1015.0 0.0
 
Date/Time
CST
Temp
°C
App
Temp
°C
Dew
Point
°C
Rel
Hum
%
Delta-T
°C
Wind Press
QNH
hPa
Press
MSL
hPa
Rain since
9am
mm
Dir  Spd
km/h
Gust
km/h
Spd
kts
Gust
kts
05/11:30pm 20.3 18.5 5.5 38 7.3 SE 4 7 2 4 1015.0 1014.9 0.0
05/11:00pm 21.7 19.5 5.2 34 8.2 SSE 6 7 3 4 1014.9 1014.8 0.0
05/10:30pm 23.2 20.9 4.7 30 9.2 SSE 6 9 3 5 1014.8 1014.7 0.0
05/10:00pm 23.5 21.0 4.9 30 9.3 SSE 7 13 4 7 1014.6 1014.5 0.0
05/09:30pm 23.0 20.7 5.9 33 8.7 SSE 7 9 4 5 1014.4 1014.3 0.0
05/09:00pm 22.0 20.8 6.3 36 8.0 SSE 2 6 1 3 1014.2 1014.1 0.0
05/08:30pm 22.6 21.8 6.4 35 8.3 CALM 0 0 0 0 1014.0 1013.9 0.0
05/08:00pm 23.2 22.4 6.5 34 8.6 CALM 0 0 0 0 1013.7 1013.6 0.0
05/07:30pm 24.4 22.8 6.2 31 9.4 SSE 4 6 2 3 1013.3 1013.2 0.0
05/07:00pm 25.8 23.7 5.9 28 10.3 SSE 6 6 3 3 1013.1 1013.0 0.0
05/06:30pm 27.3 25.2 5.6 25 11.2 SSE 6 7 3 4 1012.8 1012.7 0.0
05/06:00pm 28.9 26.2 5.7 23 12.1 SSE 9 15 5 8 1012.3 1012.2 0.0
05/05:30pm 29.9 27.3 5.9 22 12.7 SSE 9 17 5 9 1011.9 1011.8 0.0
05/05:00pm 29.8 26.3 7.1 24 12.2 ESE 15 24 8 13 1011.7 1011.6 0.0
05/04:30pm 30.5 27.1 5.7 21 13.1 SE 13 22 7 12 1011.6 1011.5 0.0
05/04:00pm 30.7 27.3 5.9 21 13.2 SE 13 22 7 12 1011.6 1011.5 0.0
05/03:30pm 30.3 26.7 6.9 23 12.6 ESE 15 32 8 17 1011.8 1011.7 0.0
05/03:00pm 30.4 26.9 7.0 23 12.6 ESE 15 30 8 16 1011.9 1011.8 0.0
05/02:30pm 29.9 26.0 7.2 24 12.3 ESE 17 30 9 16 1012.4 1012.3 0.0
05/02:00pm 30.1 26.4 7.9 25 12.1 ESE 17 28 9 15 1012.8 1012.7 0.0
05/01:30pm 29.6 25.7 8.6 27 11.6 ESE 19 28 10 15 1013.4 1013.3 0.0
05/01:00pm 29.0 24.9 8.7 28 11.2 SE 20 33 11 18 1013.7 1013.6 0.0
05/12:30pm 28.6 24.4 8.3 28 11.1 ESE 20 30 11 16 1014.1 1014.0 0.0
05/12:00pm 28.9 25.4 8.6 28 11.2 SE 17 28 9 15 1014.5 1014.4 0.0
05/11:30am 27.7 22.9 9.0 31 10.3 SE 24 39 13 21 1015.2 1015.1 0.0
05/11:00am 26.9 23.1 9.7 34 9.5 SE 20 33 11 18 1015.7 1015.6 0.0
05/10:30am 25.9 21.4 10.1 37 8.8 SE 24 39 13 21 1016.1 1016.0 0.0
05/10:00am 25.2 21.2 10.3 39 8.3 SE 22 35 12 19 1016.0 1015.9 0.0
05/09:30am 24.4 20.5 9.6 39 8.1 SSE 20 35 11 19 1016.1 1016.0 0.0
05/09:00am 23.1 19.2 9.5 42 7.4 SE 20 30 11 16 1016.1 1016.0 0.0
05/08:30am 21.6 20.1 10.4 49 6.1 SE 9 15 5 8 1015.9 1015.8 0.0
05/08:00am 19.5 18.7 11.0 58 4.6 SE 6 7 3 4 1015.6 1015.5 0.0
05/07:30am 17.8 17.1 11.4 66 3.5 S 6 7 3 4 1015.4 1015.3 0.0
05/07:00am 17.3 16.8 10.7 65 3.5 SSE 4 6 2 3 1015.0 1014.9 0.0
05/06:30am 18.6 18.2 11.2 62 4.0 ESE 4 6 2 3 1014.7 1014.6 0.0
05/06:00am 19.4 18.6 11.2 59 4.5 SSE 6 9 3 5 1014.6 1014.5 0.0
05/05:30am 20.3 19.5 11.2 56 5.0 SE 6 9 3 5 1014.2 1014.1 0.0
05/05:00am 20.7 19.4 11.3 55 5.2 ESE 9 15 5 8 1014.0 1013.9 0.0
05/04:30am 20.7 19.5 11.6 56 5.0 E 9 15 5 8 1013.8 1013.7 0.0
05/04:00am 20.9 20.2 11.5 55 5.2 E 6 7 3 4 1014.1 1014.0 0.0
05/03:30am 21.9 20.3 11.6 52 5.7 E 11 17 6 9 1014.0 1013.9 0.0
05/03:00am 22.3 20.7 11.4 50 6.1 E 11 15 6 8 1014.4 1014.3 0.0
05/02:30am 22.9 20.4 11.0 47 6.6 ESE 15 24 8 13 1014.7 1014.6 0.0
05/02:00am 23.1 20.8 10.5 45 6.9 ESE 13 20 7 11 1014.8 1014.7 0.0
05/01:30am 22.5 20.7 9.3 43 7.1 ESE 9 13 5 7 1014.9 1014.8 0.0
05/01:00am 22.5 20.9 8.2 40 7.5 ESE 6 9 3 5 1015.2 1015.1 0.0
05/12:30am 23.8 22.0 7.8 36 8.4 SE 7 15 4 8 1015.2 1015.1 0.0
05/12:00am 24.5 22.2 7.6 34 8.9 ESE 9 15 5 8 1015.1 1015.0 0.0
 
Date/Time
CST
Temp
°C
App
Temp
°C
Dew
Point
°C
Rel
Hum
%
Delta-T
°C
Wind Press
QNH
hPa
Press
MSL
hPa
Rain since
9am
mm
Dir  Spd
km/h
Gust
km/h
Spd
kts
Gust
kts
04/11:30pm 24.3 22.1 7.9 35 8.7 SE 9 13 5 7 1015.1 1015.0 0.0
04/11:00pm 23.9 22.1 7.9 36 8.5 SE 7 9 4 5 1015.3 1015.2 0.0
04/10:30pm 23.8 22.2 7.8 36 8.4 SE 6 7 3 4 1015.2 1015.1 0.0
04/10:00pm 24.4 22.8 8.0 35 8.7 SE 6 9 3 5 1015.2 1015.1 0.0
04/09:30pm 24.9 23.2 8.4 35 8.8 SE 7 9 4 5 1014.9 1014.8 0.0
04/09:00pm 24.8 23.4 8.7 36 8.7 SSE 6 6 3 3 1014.8 1014.7 0.0
04/08:30pm 25.4 24.0 8.8 35 9.0 SSE 6 7 3 4 1014.4 1014.3 0.0
04/08:00pm 25.8 24.4 8.8 34 9.2 SSE 6 6 3 3 1014.0 1013.9 0.0
04/07:30pm 27.1 25.7 9.0 32 9.9 SSE 6 7 3 4 1013.7 1013.6 0.0
04/07:00pm 28.3 26.8 8.6 29 10.8 SE 6 11 3 6 1013.4 1013.3 0.0
04/06:30pm 29.8 27.7 8.2 26 11.8 SE 9 19 5 10 1012.9 1012.8 0.0
04/06:00pm 31.0 27.9 8.7 25 12.4 SE 15 22 8 12 1012.6 1012.5 0.0
04/05:30pm 31.8 28.8 9.3 25 12.7 ESE 15 24 8 13 1012.4 1012.3 0.0
04/05:00pm 32.3 28.7 9.8 25 12.8 SE 19 28 10 15 1012.3 1012.2 0.0
04/04:30pm 32.8 30.1 10.2 25 13.0 SE 15 26 8 14 1012.2 1012.1 0.0
04/04:00pm 32.8 29.3 10.2 25 13.0 ESE 19 32 10 17 1012.3 1012.2 0.0
04/03:30pm 32.9 28.9 10.3 25 13.0 ESE 22 32 12 17 1012.5 1012.4 0.0
04/03:00pm 32.7 29.1 10.7 26 12.7 ESE 20 39 11 21 1012.8 1012.7 0.0
04/02:30pm 32.2 28.5 11.4 28 12.1 SE 22 33 12 18 1013.0 1012.9 0.0
04/02:00pm 32.3 28.7 12.0 29 12.0 ESE 22 37 12 20 1013.4 1013.3 0.0
04/01:30pm 32.2 28.4 12.4 30 11.7 ESE 24 35 13 19 1014.0 1013.9 0.0
04/01:00pm 31.2 26.5 12.1 31 11.2 SE 28 46 15 25 1014.4 1014.3 0.0
04/12:30pm 31.2 27.2 13.0 33 10.8 E 26 41 14 22 1015.0 1014.9 0.0
04/12:00pm 31.0 27.5 13.3 34 10.6 E 24 41 13 22 1015.5 1015.4 0.0
04/11:30am 30.7 26.9 13.5 35 10.3 E 26 39 14 21 1016.0 1015.9 0.0
04/11:00am 29.8 25.9 14.4 39 9.3 ESE 28 44 15 24 1016.2 1016.1 0.0
04/10:55am 29.3 25.2 13.9 39 9.2 ESE 28 48 15 26 1016.1 1016.0 0.0
04/10:30am 28.8 25.5 15.0 43 8.4 ESE 26 43 14 23 1016.3 1016.2 0.0
04/10:00am 27.9 25.0 15.2 46 7.7 ESE 24 37 13 20 1016.6 1016.5 0.0
04/09:30am 27.4 25.4 15.4 48 7.3 SE 20 33 11 18 1016.7 1016.6 0.0
04/09:00am 26.7 25.7 15.7 51 6.7 ESE 15 24 8 13 1016.5 1016.4 0.0
04/08:30am 25.1 25.5 16.3 58 5.4 ESE 9 17 5 9 1016.1 1016.0 0.0
04/08:00am 23.0 24.0 16.8 68 3.8 ESE 7 11 4 6 1015.7 1015.6 0.0
04/07:30am 21.1 22.2 16.7 76 2.7 SE 6 7 3 4 1015.3 1015.2 0.0
04/07:00am 20.4 22.0 16.8 80 2.2 SE 4 6 2 3 1015.2 1015.1 0.0
04/06:30am 20.6 22.2 16.8 79 2.3 SE 4 6 2 3 1015.1 1015.0 0.0
04/06:00am 20.4 22.0 16.8 80 2.2 SE 4 6 2 3 1014.9 1014.8 0.0
04/05:30am 21.0 22.7 17.2 79 2.3 SE 4 6 2 3 1014.8 1014.7 0.0
04/05:00am 21.2 23.1 17.6 80 2.2 SE 4 6 2 3 1014.6 1014.5 0.0
04/04:30am 21.3 23.5 18.3 83 1.9 SSE 4 6 2 3 1014.4 1014.3 0.0
04/04:00am 20.7 23.5 17.9 84 1.7 CALM 0 0 0 0 1014.5 1014.4 0.0
04/03:30am 21.0 23.7 17.8 82 2.0 CALM 0 0 0 0 1014.6 1014.5 0.0
04/03:00am 21.6 24.5 18.2 81 2.1 CALM 0 0 0 0 1014.8 1014.7 0.0
04/02:30am 22.1 25.0 18.3 79 2.4 CALM 0 0 0 0 1015.2 1015.1 0.0
04/02:00am 22.6 25.8 18.8 79 2.4 CALM 0 0 0 0 1015.4 1015.3 0.0
04/01:30am 23.1 26.3 18.8 77 2.7 CALM 0 0 0 0 1015.5 1015.4 0.0
04/01:00am 23.6 26.4 18.9 75 3.0 ESE 2 4 1 2 1015.4 1015.3 0.0
04/12:30am 23.9 27.2 19.0 74 3.1 CALM 0 0 0 0 1015.6 1015.5 0.0
04/12:00am 24.0 27.1 18.6 72 3.4 CALM 0 0 0 0 1015.6 1015.5 0.0
 
Date/Time
CST
Temp
°C
App
Temp
°C
Dew
Point
°C
Rel
Hum
%
Delta-T
°C
Wind Press
QNH
hPa
Press
MSL
hPa
Rain since
9am
mm
Dir  Spd
km/h
Gust
km/h
Spd
kts
Gust
kts
03/11:30pm 24.6 27.6 18.5 69 3.9 CALM 0 0 0 0 1015.4 1015.3 0.0
03/11:00pm 25.3 28.4 18.7 67 4.2 CALM 0 0 0 0 1015.3 1015.2 0.0
03/10:30pm 26.0 28.8 18.9 65 4.5 SSW 2 2 1 1 1015.3 1015.2 0.0
03/10:00pm 26.1 29.4 19.0 65 4.6 CALM 0 4 0 2 1015.3 1015.2 0.0

Other formats

Comma delimited format used in spreadsheet applications
http://www.bom.gov.au/fwo/IDD60801/IDD60801.94105.axf

JavaScript Object Notation format (JSON) in row-major order
http://www.bom.gov.au/fwo/IDD60801/IDD60801.94105.json

Data quality

Most of these data are generated automatically and are frequently updated. Quality checks on data are not normally performed. It is possible for incorrect values to appear. Refer to information at About Latest Weather Observations and please check the disclaimer before using these data.